Date,TemperatureHighF,TemperatureAvgF,TemperatureLowF,DewpointHighF,DewpointAvgF,DewpointLowF,HumidityHigh,HumidityAvg,HumidityLow,PressureMaxIn,PressureMinIn,WindSpeedMaxMPH,WindSpeedAvgMPH,GustSpeedMaxMPH,PrecipitationSumIn
2013-1-1,54.7,41.9,33.8,40.7,37.3,31.2,95,85,58,30.21,30.14,9,2,0,0.00
2013-1-2,59.7,41.9,31.1,41.6,34.1,29.3,93,76,41,30.17,30.05,6,2,0,0.00
2013-1-3,60.6,42.1,32.2,44.3,36.0,30.3,93,81,48,30.19,30.09,5,1,0,0.00
2013-1-4,61.5,44.9,34.7,42.8,37.3,33.2,94,78,43,30.22,30.09,5,1,0,0.00
2013-1-5,59.2,47.3,37.2,49.4,43.6,34.8,95,87,70,30.19,29.98,6,1,0,0.04
2013-1-6,55.2,46.2,38.5,47.6,43.6,37.2,96,91,73,30.11,29.96,4,1,0,0.12
2013-1-7,62.8,47.3,37.9,52.5,43.6,36.6,97,88,68,30.18,30.06,4,1,0,0.00
2013-1-8,66.0,49.5,40.3,51.1,44.5,39.3,97,85,56,30.15,30.03,4,1,0,0.00
2013-1-9,57.7,46.0,39.9,50.9,43.2,37.5,97,90,74,30.06,29.93,9,2,0,0.02
2013-1-10,54.0,43.7,35.8,41.1,36.9,33.2,95,78,56,30.11,29.99,9,2,0,0.01
2013-1-11,56.5,43.6,32.5,42.4,36.8,29.6,92,78,56,30.18,30.04,10,2,0,0.00
2013-1-12,54.3,40.9,32.2,38.4,30.9,21.4,95,72,29,30.19,30.06,6,1,0,0.00
2013-1-13,54.1,38.3,28.0,32.2,26.9,17.6,89,68,26,30.21,30.09,5,2,0,0.00
2013-1-14,54.5,39.4,27.5,28.4,21.9,14.6,86,54,22,30.34,30.15,5,2,0,0.00
2013-1-15,58.3,41.4,30.0,34.5,29.6,26.2,87,67,31,30.40,30.32,4,1,0,0.00
2013-1-16,60.8,42.6,30.7,37.5,32.1,27.6,90,70,35,30.36,30.17,5,1,0,0.00
2013-1-17,67.1,45.7,32.7,43.0,35.1,29.7,89,70,33,30.18,30.05,5,2,0,0.00
2013-1-18,69.3,48.4,34.0,43.7,37.0,31.4,92,69,34,30.15,30.04,6,2,0,0.00
2013-1-19,41.9,41.6,41.4,36.5,36.4,36.3,82,82,81,30.14,30.13,2,2,0,0.00
2013-1-20,70.3,48.4,35.8,42.2,36.0,32.6,91,67,27,30.15,30.04,7,1,0,0.00
2013-1-21,68.2,48.2,33.8,43.7,37.3,31.2,91,69,35,30.10,29.99,6,2,0,0.00
2013-1-22,65.7,50.2,37.0,47.1,40.1,34.3,91,71,39,30.02,29.91,4,1,0,0.00
2013-1-23,57.4,50.8,46.9,53.1,46.7,41.2,96,86,75,30.00,29.87,4,0,0,0.13
2013-1-24,60.6,54.1,50.0,54.0,51.3,48.9,97,91,78,30.10,29.97,5,1,0,0.01
2013-1-25,68.7,57.3,50.0,58.0,53.2,48.5,96,87,67,30.11,29.95,7,1,0,0.00
2013-1-26,61.5,51.1,39.9,50.1,44.6,36.9,97,80,52,30.01,29.92,11,3,0,0.00
2013-1-27,61.5,48.6,39.9,41.5,39.5,35.1,93,73,39,30.10,30.00,6,2,0,0.00
2013-1-28,61.7,53.5,43.9,45.4,43.7,40.3,87,70,53,30.21,30.13,9,4,0,0.00
2013-1-29,63.0,49.4,41.4,47.5,42.4,39.0,93,78,55,30.29,30.19,5,2,0,0.00
2013-1-30,72.1,52.5,40.8,48.0,42.2,38.4,93,72,36,30.26,30.17,6,1,0,0.00
2013-1-31,69.3,51.1,39.0,49.2,42.9,37.3,94,76,44,30.21,30.08,6,2,0,0.00
2013-2-1,70.5,53.0,40.3,51.7,44.9,39.0,95,77,45,30.13,30.02,5,1,0,0.00
2013-2-2,60.8,49.6,43.0,52.8,46.0,41.1,96,88,72,30.22,30.12,4,1,0,0.00
2013-2-3,63.5,49.7,39.9,48.7,43.1,38.0,95,80,56,30.18,30.06,6,2,0,0.00
2013-2-4,61.0,48.0,39.7,51.3,44.6,37.8,96,89,68,30.11,29.98,5,1,0,0.00
2013-2-5,59.0,50.9,45.5,48.5,45.1,42.4,94,81,68,30.07,30.00,8,3,0,0.00
2013-2-6,64.4,48.6,37.0,47.4,41.4,35.4,95,78,51,30.12,30.03,7,2,0,0.00
2013-2-7,59.4,45.5,37.0,48.2,40.1,35.2,95,83,52,30.10,29.92,10,2,0,0.13
2013-2-8,57.0,44.6,36.5,44.2,39.3,34.3,96,83,56,29.95,29.86,11,2,0,0.08
2013-2-9,61.9,46.0,33.8,39.7,32.2,25.7,86,64,26,30.02,29.91,6,2,0,0.00
2013-2-10,64.6,46.5,32.2,40.6,34.7,28.7,88,67,35,30.05,29.94,6,1,0,0.00
2013-2-11,67.8,49.7,35.6,38.7,32.7,26.1,88,58,22,30.15,29.99,7,1,0,0.00
2013-2-12,67.1,48.5,35.6,46.4,39.3,33.4,94,74,36,30.28,30.15,7,1,0,0.00
2013-2-13,68.5,50.1,37.6,49.1,41.2,35.4,94,75,38,30.27,30.13,4,1,0,0.00
2013-2-14,73.6,54.3,39.2,48.1,41.7,37.2,95,67,35,30.17,30.06,6,2,0,0.00
2013-2-15,77.0,57.0,42.1,49.7,43.2,37.3,85,64,33,30.18,30.10,6,1,0,0.00
2013-2-16,74.1,55.1,42.3,53.0,45.4,39.8,93,73,44,30.14,29.96,5,1,0,0.00
2013-2-17,68.9,51.2,39.2,49.3,42.8,37.6,96,76,44,29.98,29.87,7,1,0,0.00
2013-2-18,55.0,46.2,36.3,46.4,40.0,34.7,96,80,58,29.98,29.90,11,2,0,0.00
2013-2-19,50.5,43.4,34.0,45.0,39.3,31.7,92,85,76,29.90,29.67,7,2,0,0.34
2013-2-20,64.6,48.1,31.3,43.8,38.3,29.5,93,72,36,29.99,29.77,7,2,0,0.00
2013-2-21,65.3,49.8,38.5,41.9,37.4,31.9,92,66,33,30.10,29.97,9,2,0,0.00
2013-2-22,68.2,50.1,35.2,46.7,38.6,31.3,91,68,34,30.18,30.09,8,2,0,0.00
2013-2-23,63.5,51.2,40.6,46.8,41.1,35.4,91,70,40,30.19,30.08,9,3,0,0.00
2013-2-24,67.6,50.8,37.8,36.3,30.3,22.5,76,51,19,30.20,30.09,7,2,0,0.00
2013-2-25,67.6,50.2,36.7,48.0,40.2,30.9,93,71,44,30.20,30.09,7,2,0,0.00
2013-2-26,71.8,53.6,36.5,41.3,32.1,20.8,93,52,15,30.14,30.05,6,2,0,0.00
2013-2-27,74.3,53.7,36.3,48.0,39.8,30.4,88,62,29,30.29,30.13,6,2,0,0.00
2013-2-28,57.9,46.7,42.1,49.7,43.6,39.9,95,89,74,30.36,30.29,3,1,0,0.00
2013-3-1,77.5,57.7,43.7,55.7,48.6,42.4,96,75,42,30.35,30.14,5,1,0,0.00
2013-3-2,71.6,58.3,47.5,55.9,50.0,45.3,93,75,54,30.16,29.97,4,1,0,0.00
2013-3-3,70.0,55.0,43.3,51.8,47.2,41.0,92,77,46,30.02,29.94,9,2,0,0.00
2013-3-4,63.0,49.4,39.4,49.2,42.9,36.7,95,80,58,30.07,29.97,9,2,0,0.00
2013-3-5,62.8,49.5,36.1,46.1,41.6,34.3,94,76,50,30.00,29.76,13,4,0,0.18
2013-3-6,58.1,50.7,38.3,48.2,42.4,35.9,91,74,54,29.99,29.78,18,5,0,0.29
2013-3-7,61.0,47.9,37.6,45.9,41.3,35.2,94,79,52,29.92,29.76,7,2,0,0.20
2013-3-8,63.1,50.9,42.4,47.6,43.7,41.0,96,78,54,29.98,29.74,14,4,0,0.03
2013-3-9,72.7,55.1,42.6,45.9,41.4,36.9,91,64,28,30.22,29.98,7,2,0,0.00
2013-3-10,75.9,55.8,38.5,50.1,39.0,29.8,93,61,19,30.28,30.16,5,2,0,0.00
2013-3-11,78.3,55.5,39.6,52.2,42.8,36.9,94,68,27,30.18,30.01,6,2,0,0.00
2013-3-12,77.0,57.0,42.3,56.1,48.5,40.1,96,77,41,30.08,29.97,7,1,0,0.00
2013-3-13,83.5,60.7,42.4,58.0,50.2,41.1,97,73,36,30.08,29.95,5,1,0,0.00
2013-3-14,77.5,57.8,44.6,56.3,47.2,37.4,96,72,27,30.08,30.00,6,1,0,0.00
2013-3-15,76.1,56.0,41.5,54.5,46.1,38.4,92,72,41,30.06,29.96,7,1,0,0.00
2013-3-16,79.2,57.5,45.3,55.5,46.4,38.5,95,71,24,30.03,29.94,12,3,0,0.00
2013-3-17,73.0,56.7,43.2,46.8,42.9,39.6,88,63,34,30.07,29.96,7,2,0,0.00
2013-3-18,68.2,54.0,40.5,51.8,44.8,38.6,94,73,54,30.04,29.94,5,2,0,0.00
2013-3-19,74.8,56.0,43.5,53.0,45.5,34.7,92,71,40,30.05,29.97,8,2,0,0.04
2013-3-20,67.1,56.5,49.1,56.6,51.1,47.2,96,83,62,30.05,29.99,13,3,0,0.03
2013-3-21,70.3,54.1,41.9,50.6,43.4,38.7,93,70,38,30.06,29.92,7,2,0,0.00
2013-3-22,73.2,54.6,38.5,47.1,33.6,21.9,93,55,15,30.04,29.93,7,2,0,0.00
2013-3-23,73.0,55.6,39.4,43.7,34.6,23.0,86,53,16,30.06,29.95,5,2,0,0.00
2013-3-24,75.9,55.9,40.6,52.0,43.9,37.6,94,68,36,30.02,29.87,7,2,0,0.00
2013-3-25,68.9,51.5,40.1,51.1,43.3,38.0,95,75,52,29.95,29.85,7,2,0,0.00
2013-3-26,72.7,56.2,43.0,51.2,45.3,40.0,92,69,44,29.93,29.83,6,2,0,0.00
2013-3-27,70.0,56.6,46.2,55.1,49.7,43.1,92,79,55,29.93,29.87,14,2,0,0.00
2013-3-28,74.8,60.8,51.1,58.5,54.2,49.1,96,81,56,29.99,29.92,7,1,0,0.02
2013-3-29,81.0,62.2,45.3,57.4,51.8,44.0,97,73,40,30.00,29.89,7,2,0,0.00
2013-3-30,74.3,60.5,52.7,58.6,53.5,49.9,93,79,48,29.98,29.86,10,2,0,0.09
2013-3-31,70.2,59.7,50.0,58.7,52.2,48.6,96,78,53,29.97,29.89,11,3,0,0.10
2013-4-1,72.0,59.2,47.7,60.6,52.2,44.9,97,79,55,30.06,29.94,9,2,0,0.14
2013-4-2,74.3,56.2,43.9,56.6,49.1,42.6,97,80,51,30.10,29.98,7,2,0,0.00
2013-4-3,81.7,60.3,49.6,57.0,51.1,47.4,93,75,37,30.06,29.87,5,2,0,0.00
2013-4-4,68.9,59.1,52.0,58.1,53.5,49.2,96,83,64,30.04,29.91,10,3,0,0.37
2013-4-5,69.6,59.3,48.9,55.6,51.9,46.4,93,78,56,30.10,30.03,8,2,0,0.00
2013-4-6,70.2,57.5,49.3,57.3,51.2,46.1,95,81,57,30.11,30.04,6,2,0,0.00
2013-4-7,70.3,57.9,50.0,56.0,50.6,46.7,93,78,54,30.09,29.79,11,3,0,0.03
2013-4-8,71.2,58.7,46.9,49.5,42.3,36.6,90,57,31,29.92,29.77,14,5,0,0.00
2013-4-9,79.7,60.8,45.0,45.7,39.7,34.6,81,51,20,30.01,29.92,9,3,0,0.00
2013-4-10,90.7,67.9,49.1,53.7,47.1,41.9,78,52,21,30.09,29.93,9,3,0,0.11
2013-4-11,77.2,62.1,47.8,53.1,46.4,40.8,84,59,31,29.98,29.75,14,4,0,0.00
2013-4-12,80.2,59.3,42.1,56.2,46.4,39.9,95,66,32,29.84,29.73,7,2,0,0.00
2013-4-13,75.9,56.4,43.3,53.3,43.5,38.7,93,65,38,29.83,29.76,10,2,0,0.00
2013-4-14,73.8,54.2,39.4,47.3,41.4,36.7,91,66,31,29.86,29.78,10,3,0,0.00
2013-4-15,63.9,52.2,43.9,48.5,40.8,36.6,90,67,44,29.88,29.78,22,6,0,0.00
2013-4-16,71.8,54.0,35.2,46.0,35.6,27.7,92,56,20,30.06,29.88,9,3,0,0.00
2013-4-17,74.8,58.4,44.6,39.4,34.1,26.3,67,44,17,30.20,30.06,8,3,0,0.00
2013-4-18,81.3,61.8,42.8,45.0,35.0,28.8,76,43,15,30.19,30.08,7,2,0,0.00
2013-4-19,86.0,63.4,44.6,56.5,47.3,38.8,94,60,24,30.15,29.97,8,2,0,0.00
2013-4-20,86.2,64.9,46.6,53.6,43.9,37.3,89,53,20,30.03,29.87,6,2,0,0.00
2013-4-21,92.1,67.9,46.0,56.3,43.4,33.5,93,52,13,29.96,29.81,5,2,0,0.00
2013-4-22,93.9,70.6,50.4,54.8,43.6,34.2,81,46,13,29.88,29.73,7,2,0,0.00
2013-4-23,87.4,65.2,47.8,48.5,38.5,17.0,85,49,8,29.85,29.75,7,2,0,0.00
2013-4-24,77.2,59.6,44.2,55.4,49.1,42.3,94,71,45,29.86,29.73,10,2,0,0.00
2013-4-25,75.6,58.9,45.7,56.5,49.3,44.1,96,73,47,30.05,29.86,12,3,0,0.00
2013-4-26,77.4,58.8,45.0,54.0,48.6,42.6,94,71,44,30.15,30.05,7,2,0,0.00
2013-4-27,80.4,60.4,45.5,57.1,50.2,42.7,92,72,45,30.15,29.99,6,2,0,0.00
2013-4-28,93.4,65.0,44.8,59.3,51.8,42.9,95,68,29,30.00,29.77,7,2,0,0.00
2013-4-29,96.3,72.0,52.2,60.4,50.2,44.5,89,54,18,29.80,29.65,7,2,0,0.00
2013-4-30,88.3,67.4,48.0,56.6,44.9,33.5,89,52,15,29.76,29.68,7,2,0,0.00
2013-5-1,95.5,70.6,50.7,46.7,30.0,8.4,63,31,5,29.99,29.75,8,2,0,0.00
2013-5-2,97.0,73.3,49.8,43.5,32.5,16.1,71,32,6,30.06,29.97,6,2,0,0.00
2013-5-3,96.3,72.8,51.8,52.8,34.4,20.7,56,29,7,30.00,29.70,6,2,0,0.00
2013-5-4,93.6,70.9,51.3,57.5,47.0,34.4,74,47,15,29.70,29.45,10,3,0,0.00
2013-5-5,71.8,62.3,54.7,52.0,49.0,45.9,73,62,48,29.70,29.50,17,6,0,0.00
2013-5-6,73.8,63.0,50.0,54.5,50.5,45.8,88,65,46,29.86,29.71,11,3,0,0.00
2013-5-7,77.4,63.6,51.1,56.8,50.6,46.7,85,64,43,29.96,29.86,10,2,0,0.00
2013-5-8,72.0,59.1,48.6,54.5,50.3,45.5,93,74,51,30.08,29.96,9,3,0,0.00
2013-5-9,74.1,60.0,48.6,53.9,49.8,45.2,91,71,47,30.11,30.00,9,4,0,0.00
2013-5-10,81.3,61.9,48.4,58.1,51.5,45.6,92,71,42,30.12,30.01,9,2,0,0.00
2013-5-11,86.4,67.5,50.9,62.0,54.7,47.6,90,67,39,30.08,29.93,6,2,0,0.00
2013-5-12,89.1,67.9,49.5,63.8,52.7,44.8,96,63,25,30.06,29.93,7,2,0,0.00
2013-5-13,84.7,64.6,46.8,59.9,51.6,44.4,95,66,38,30.02,29.87,10,2,0,0.00
2013-5-14,81.1,63.6,47.8,57.1,48.2,42.2,93,61,32,29.96,29.85,10,2,0,0.00
2013-5-15,71.8,57.5,45.0,50.8,45.9,41.7,89,68,41,30.00,29.93,9,3,0,0.00
2013-5-16,75.4,61.4,52.3,56.8,52.1,48.5,88,73,49,29.96,29.89,8,3,0,0.00
2013-5-17,73.9,59.3,46.2,51.7,47.3,43.0,92,67,41,30.01,29.90,10,4,0,0.00
2013-5-18,81.1,62.0,43.3,55.3,47.8,41.2,95,64,35,30.06,29.99,9,3,0,0.00
2013-5-19,90.7,68.4,46.6,55.3,44.0,39.1,88,48,18,30.04,29.86,8,2,0,0.00
2013-5-20,95.5,70.2,48.2,55.7,40.2,24.2,81,43,8,29.92,29.82,12,2,0,0.00
2013-5-21,74.3,59.8,50.4,55.1,45.5,38.4,88,62,35,29.92,29.85,11,4,0,0.00
2013-5-22,71.2,56.9,45.5,42.4,38.6,29.6,79,54,22,29.94,29.83,9,4,0,0.00
2013-5-23,71.4,57.3,45.1,47.5,42.5,37.6,80,60,39,29.92,29.83,14,4,0,0.00
2013-5-24,76.5,57.0,41.2,50.4,43.1,37.4,92,64,32,29.93,29.87,12,3,0,0.00
2013-5-25,70.0,56.3,43.0,50.2,46.1,40.5,93,71,46,29.98,29.89,17,4,0,0.00
2013-5-26,74.3,61.5,52.5,55.6,52.2,48.6,88,73,50,30.05,29.97,11,4,0,0.00
2013-5-27,69.1,60.6,50.7,56.9,53.2,47.6,91,77,61,30.05,29.90,8,3,0,0.00
2013-5-28,74.8,63.3,54.5,59.7,54.1,47.1,92,74,49,29.90,29.83,10,3,0,0.00
2013-5-29,74.3,63.0,52.2,57.2,51.3,44.2,80,67,47,29.88,29.81,10,4,0,0.00
2013-5-30,82.8,62.3,43.5,53.5,42.8,34.5,92,55,18,29.90,29.84,9,2,0,0.00
2013-5-31,96.1,69.0,45.1,55.4,45.1,37.6,89,51,14,29.93,29.80,8,2,0,0.00
2013-6-1,99.5,74.4,50.0,59.8,49.1,37.0,89,51,12,29.84,29.65,7,2,0,0.00
2013-6-2,86.9,65.5,51.3,58.3,51.7,46.9,85,64,33,29.69,29.56,6,2,0,0.00
2013-6-3,87.4,65.7,49.5,58.3,53.0,47.1,94,67,36,29.75,29.63,7,2,0,0.00
2013-6-4,81.1,65.0,51.4,58.3,53.4,48.2,91,69,44,29.85,29.74,6,2,0,0.00
2013-6-5,85.5,64.3,51.8,57.4,52.9,48.7,90,69,38,29.89,29.79,7,2,0,0.00
2013-6-6,83.3,65.7,53.8,60.3,54.6,49.1,87,70,44,29.85,29.74,6,3,0,0.00
2013-6-7,100.2,70.1,53.8,64.0,57.7,50.3,90,69,31,29.78,29.61,5,2,0,0.00
2013-6-8,91.9,71.6,54.5,63.1,57.4,52.1,92,65,37,29.69,29.58,6,2,0,0.00
2013-6-9,82.6,66.3,54.5,61.2,55.7,51.9,92,71,47,29.77,29.69,15,4,0,0.00
2013-6-10,75.0,63.2,54.0,56.2,52.6,49.2,87,70,52,29.83,29.73,14,4,0,0.00
2013-6-11,79.3,64.7,53.2,58.4,53.8,47.8,89,69,47,29.88,29.78,7,2,0,0.00
2013-6-12,85.5,65.2,47.3,57.5,46.0,39.3,89,56,20,29.92,29.81,13,3,0,0.00
2013-6-13,86.7,65.5,43.7,55.4,45.5,35.7,91,54,18,30.00,29.89,7,2,0,0.00
2013-6-14,93.9,70.3,47.8,57.2,44.2,36.2,89,49,14,29.90,29.69,9,2,0,0.00
2013-6-15,81.7,62.7,46.2,56.7,49.7,44.0,94,66,34,29.93,29.74,7,2,0,0.00
2013-6-16,84.6,65.6,47.3,57.1,50.9,45.1,95,63,35,29.99,29.92,9,3,0,0.00
2013-6-17,77.7,63.2,48.4,58.6,53.0,45.5,91,71,50,30.01,29.94,13,3,0,0.00
2013-6-18,71.1,61.2,50.2,54.4,51.3,48.2,95,72,52,29.95,29.91,20,5,0,0.00
2013-6-19,80.4,64.2,51.3,53.1,48.8,43.4,81,60,33,29.96,29.91,9,4,0,0.00
2013-6-20,86.4,64.0,46.2,55.5,46.8,39.4,91,59,20,29.92,29.84,12,3,0,0.00
2013-6-21,90.3,65.9,46.9,58.9,48.0,41.6,93,58,20,29.89,29.81,10,2,0,0.00
2013-6-22,94.5,68.9,49.3,61.0,50.8,42.9,92,59,17,29.83,29.74,11,4,0,0.00
2013-6-23,77.2,66.3,56.1,62.2,57.9,51.9,89,75,57,29.79,29.69,8,3,0,0.00
2013-6-24,71.8,64.4,60.1,62.4,59.6,57.1,92,85,71,29.79,29.68,7,2,0,0.00
2013-6-25,81.0,69.8,63.0,66.3,62.1,57.7,89,77,61,29.87,29.77,10,4,0,0.00
2013-6-26,89.8,73.8,59.7,68.2,62.6,57.8,94,71,45,29.94,29.85,7,2,0,0.00
2013-6-27,98.8,75.9,56.7,66.6,58.7,53.6,96,62,24,29.97,29.89,6,2,0,0.00
2013-6-28,107.8,80.2,56.7,67.3,57.6,48.6,91,54,17,29.92,29.77,7,2,0,0.00
2013-6-29,104.7,80.4,58.5,65.8,56.7,49.9,87,53,17,29.82,29.68,8,2,0,0.00
2013-6-30,100.4,76.6,56.5,65.0,56.4,51.2,88,56,21,29.74,29.65,6,2,0,0.00
2013-7-1,99.9,76.5,56.8,67.2,59.9,53.5,93,61,25,29.74,29.68,7,2,0,0.00
2013-7-2,93.9,75.5,61.7,66.7,61.3,56.7,87,64,39,29.80,29.71,6,2,0,0.00
2013-7-3,95.4,76.1,61.7,66.2,61.8,57.3,88,65,35,29.80,29.64,6,2,0,0.00
2013-7-4,99.7,78.3,63.3,67.2,58.7,46.7,86,56,21,29.67,29.56,6,2,0,0.00
2013-7-5,83.8,66.3,53.8,56.9,52.4,46.8,84,62,38,29.71,29.60,11,3,0,0.00
2013-7-6,86.5,63.5,50.0,58.5,52.8,48.0,93,72,38,29.71,29.60,6,2,0,0.00
2013-7-7,84.6,68.2,54.5,60.1,55.8,50.7,87,67,42,29.75,29.65,7,2,0,0.00
2013-7-8,84.9,65.7,53.8,60.3,56.2,50.6,92,74,42,29.87,29.75,7,2,0,0.00
2013-7-9,94.3,71.9,54.3,63.9,58.6,52.0,93,67,35,29.92,29.80,5,2,0,0.00
2013-7-10,89.8,67.5,51.4,61.1,55.9,48.9,94,69,38,29.88,29.76,7,2,0,0.00
2013-7-11,86.7,66.7,55.0,58.8,54.9,50.1,86,68,39,29.84,29.75,7,3,0,0.00
2013-7-12,93.0,68.4,54.9,59.3,54.9,50.5,87,66,26,29.83,29.75,7,2,0,0.00
2013-7-13,93.0,68.6,49.8,61.1,53.0,45.4,94,64,20,29.86,29.76,6,2,0,0.00
2013-7-14,84.4,65.6,49.8,59.6,54.4,47.3,93,70,42,29.90,29.77,6,2,0,0.00
2013-7-15,85.1,65.0,52.7,59.0,54.1,48.9,91,70,39,29.82,29.70,9,3,0,0.00
2013-7-16,79.3,62.7,49.1,57.8,53.3,47.2,94,74,47,29.94,29.76,8,3,0,0.00
2013-7-17,84.2,66.5,52.7,59.9,55.5,49.3,89,70,44,30.01,29.91,6,2,0,0.00
2013-7-18,93.9,69.5,51.4,62.1,55.5,48.8,91,66,28,29.97,29.82,8,2,0,0.00
2013-7-19,89.1,67.7,53.2,61.3,56.0,49.6,92,69,36,29.86,29.71,7,2,0,0.00
2013-7-20,85.5,66.5,52.5,60.5,55.5,49.0,91,71,41,29.76,29.61,7,2,0,0.00
2013-7-21,82.4,67.5,53.6,60.7,56.2,50.1,90,70,46,29.77,29.65,6,2,0,0.00
2013-7-22,82.0,67.2,54.9,62.9,58.3,51.8,93,75,52,29.85,29.76,7,2,0,0.00
2013-7-23,80.1,68.6,59.5,63.1,59.3,55.9,89,74,51,29.89,29.83,6,2,0,0.00
2013-7-24,89.1,71.3,55.9,64.1,59.1,53.6,95,69,41,29.88,29.78,6,2,0,0.00
2013-7-25,86.4,67.7,52.3,62.1,56.9,50.0,94,71,44,29.92,29.83,8,2,0,0.00
2013-7-26,84.2,68.6,58.8,62.6,58.1,54.8,88,71,46,29.99,29.88,7,3,0,0.00
2013-7-27,80.8,68.4,59.2,62.2,58.2,54.3,88,72,50,29.93,29.75,9,3,0,0.00
2013-7-28,82.4,67.7,54.7,60.1,56.7,50.6,88,70,46,29.77,29.67,7,2,0,0.00
2013-7-29,82.2,65.3,49.8,59.7,54.2,47.9,94,70,45,29.90,29.74,8,2,0,0.00
2013-7-30,81.9,66.9,55.0,60.2,55.5,51.2,88,69,47,29.99,29.90,7,2,0,0.00
2013-7-31,87.1,67.4,53.1,58.9,53.5,47.3,87,65,26,29.98,29.90,7,2,0,0.00
2013-8-1,82.8,64.3,48.6,60.0,50.9,46.4,94,66,36,29.99,29.86,8,2,0,0.00
2013-8-2,86.4,65.1,48.9,59.6,52.5,46.4,95,68,32,29.89,29.78,7,2,0,0.00
2013-8-3,83.1,66.4,53.2,59.7,55.0,49.3,90,69,45,29.88,29.78,7,2,0,0.00
2013-8-4,81.1,64.6,55.9,59.2,54.7,51.9,88,72,46,29.91,29.81,6,2,0,0.00
2013-8-5,80.1,66.2,55.6,59.3,55.4,51.2,86,70,47,29.92,29.82,8,2,0,0.00
2013-8-6,82.0,65.4,55.4,60.0,55.0,51.6,87,71,45,29.94,29.86,9,3,0,0.00
2013-8-7,78.6,66.0,54.5,58.9,55.5,51.3,90,71,49,30.00,29.91,10,3,0,0.00
2013-8-8,79.0,63.6,54.0,60.2,55.2,51.1,92,76,50,29.93,29.82,9,3,0,0.00
2013-8-9,82.0,64.9,50.2,60.9,55.1,48.3,95,73,48,29.90,29.80,9,2,0,0.00
2013-8-10,83.1,67.1,56.8,62.7,56.9,53.3,88,72,46,29.95,29.86,10,3,0,0.00
2013-8-11,87.3,67.3,55.6,61.5,56.3,52.0,91,71,36,29.93,29.82,7,2,0,0.00
2013-8-12,91.6,69.8,55.9,62.9,56.0,47.8,92,67,23,29.89,29.80,8,3,0,0.00
2013-8-13,94.6,69.8,51.4,63.7,54.7,49.4,95,65,27,29.88,29.77,7,2,0,0.00
2013-8-14,87.4,68.4,52.5,62.3,56.2,49.2,92,69,34,29.88,29.80,7,2,0,0.00
2013-8-15,92.3,72.4,56.7,68.4,62.1,55.0,96,73,43,29.86,29.79,8,2,0,0.00
2013-8-16,91.9,73.7,59.2,66.5,57.5,40.2,94,64,20,29.88,29.81,11,2,0,0.00
2013-8-17,87.6,67.7,55.8,62.9,57.3,50.6,90,71,42,29.90,29.76,9,2,0,0.00
2013-8-18,97.0,74.3,57.4,67.5,61.3,54.8,94,68,37,29.77,29.64,6,2,0,0.00
2013-8-19,96.8,76.2,60.1,67.3,61.4,55.6,85,64,35,29.80,29.67,7,2,0,0.00
2013-8-20,92.1,73.2,58.3,64.6,59.3,52.4,90,66,36,29.78,29.68,7,2,0,0.00
2013-8-21,86.2,68.5,55.6,62.4,57.2,51.7,90,70,44,29.83,29.72,7,3,0,0.00
2013-8-22,88.9,68.0,54.5,61.7,56.2,51.4,91,69,38,29.87,29.76,8,3,0,0.00
2013-8-23,86.5,67.5,53.8,61.9,55.2,50.3,91,68,38,29.83,29.70,8,2,0,0.00
2013-8-24,92.7,69.4,51.8,64.0,57.4,49.7,96,70,38,29.80,29.74,8,2,0,0.00
2013-8-25,92.7,73.2,59.7,67.4,61.9,56.1,93,71,41,29.84,29.75,11,3,0,0.00
2013-8-26,91.2,70.9,56.3,64.1,57.3,49.3,88,65,37,29.90,29.79,8,3,0,0.00
2013-8-27,91.9,69.1,51.6,63.1,55.8,48.8,94,67,35,29.81,29.70,8,2,0,0.00
2013-8-28,97.2,72.2,54.0,67.5,60.2,52.3,96,70,35,29.84,29.74,10,2,0,0.00
2013-8-29,94.5,74.7,61.9,67.5,61.8,58.0,88,68,37,29.94,29.84,7,2,0,0.00
2013-8-30,104.7,76.1,56.8,69.4,59.8,53.3,96,64,23,29.94,29.79,7,2,0,0.00
2013-8-31,95.4,72.8,54.1,64.6,56.7,48.9,94,62,28,29.87,29.77,8,2,0,0.00
2013-9-1,92.1,72.6,58.8,64.1,59.0,55.4,90,66,34,29.84,29.75,7,2,0,0.00
2013-9-2,90.7,72.5,60.8,67.7,62.1,57.5,89,72,46,29.84,29.76,6,2,0,0.00
2013-9-3,89.8,69.7,53.2,63.0,55.9,51.1,95,67,28,29.89,29.82,15,2,0,0.00
2013-9-4,90.1,68.8,53.4,65.5,57.0,51.4,96,70,33,29.93,29.84,11,4,0,0.00
2013-9-5,86.4,69.8,55.6,62.1,57.1,51.1,95,68,41,29.91,29.85,13,4,0,0.00
2013-9-6,103.5,75.8,51.8,64.7,52.1,46.6,95,53,16,29.89,29.70,8,2,0,0.00
2013-9-7,108.3,79.4,57.2,63.8,51.5,42.4,75,45,12,29.76,29.67,7,2,0,0.00
2013-9-8,98.4,73.4,54.0,66.2,58.9,51.4,93,65,30,29.76,29.63,5,1,0,0.00
2013-9-9,99.5,74.0,55.2,67.4,60.1,53.2,94,68,28,29.70,29.58,7,2,0,0.00
2013-9-10,92.3,70.6,56.8,65.9,59.4,53.5,94,72,37,29.78,29.62,10,2,0,0.00
2013-9-11,87.3,68.2,53.2,63.1,57.4,51.3,96,72,44,29.87,29.77,9,2,0,0.00
2013-9-12,86.9,68.6,57.2,64.9,59.2,54.6,92,74,45,29.87,29.75,8,2,0,0.00
2013-9-13,93.0,69.2,54.9,64.0,56.2,50.5,94,68,29,29.80,29.66,7,2,0,0.00
2013-9-14,81.7,65.1,53.2,61.2,55.3,50.9,95,73,42,29.73,29.62,9,3,0,0.00
2013-9-15,91.8,69.0,55.0,62.4,57.3,52.1,91,70,36,29.76,29.69,9,3,0,0.00
2013-9-16,93.0,68.6,54.9,65.2,57.8,53.3,96,72,34,29.79,29.69,9,3,0,0.00
2013-9-17,79.5,66.1,54.1,58.3,54.9,49.2,89,69,41,29.79,29.73,14,4,0,0.00
2013-9-18,96.8,69.2,50.0,60.6,48.3,39.2,93,57,14,29.81,29.69,8,2,0,0.00
2013-9-19,101.1,72.0,49.8,60.5,48.4,37.6,92,53,14,29.75,29.61,6,2,0,0.00
2013-9-20,81.7,65.7,49.6,63.4,55.8,44.8,94,72,51,29.77,29.67,9,2,0,0.00
2013-9-21,69.3,62.7,53.6,63.6,58.1,51.9,94,85,72,29.79,29.69,11,3,0,0.00
2013-9-22,83.7,64.7,49.8,61.7,54.0,48.7,97,72,39,29.89,29.78,7,2,0,0.00
2013-9-23,93.2,70.5,51.1,61.2,55.5,49.1,94,65,28,29.91,29.80,6,2,0,0.00
2013-9-24,83.7,66.5,55.2,57.4,53.7,49.6,89,66,39,29.89,29.81,14,4,0,0.00
2013-9-25,78.6,62.9,53.6,51.8,48.9,45.0,83,63,36,29.83,29.71,12,5,0,0.00
2013-9-26,88.9,64.0,45.3,48.1,41.7,33.6,87,53,16,29.87,29.72,10,2,0,0.00
2013-9-27,91.0,65.9,46.8,52.0,38.9,26.1,79,45,10,30.00,29.87,6,2,0,0.00
2013-9-28,95.9,67.9,46.2,56.0,44.2,34.9,86,49,14,29.98,29.87,6,1,0,0.00
2013-9-29,87.6,67.9,51.3,62.8,56.7,49.3,95,71,42,30.01,29.92,7,2,0,0.00
2013-9-30,86.5,68.5,56.5,65.4,58.9,46.5,95,74,46,29.96,29.84,7,1,0,0.00
2013-10-1,84.6,64.2,50.0,55.4,49.6,43.6,88,62,35,29.91,29.79,9,2,0,0.00
2013-10-2,89.6,64.3,48.7,58.9,47.8,39.1,90,60,21,29.90,29.81,9,2,0,0.00
2013-10-3,85.1,64.6,45.3,48.5,40.1,34.1,80,46,17,29.98,29.83,9,3,0,0.00
2013-10-4,92.5,69.3,50.2,42.6,34.4,22.9,62,33,9,29.98,29.87,8,2,0,0.00
2013-10-5,97.0,70.5,49.5,42.5,30.5,18.0,50,29,6,30.10,29.97,5,1,0,0.00
2013-10-6,96.1,68.9,48.4,53.0,37.1,22.6,60,36,8,30.02,29.87,5,1,0,0.00
2013-10-7,94.8,68.9,50.7,52.6,36.6,18.2,60,35,8,29.89,29.75,6,2,0,0.00
2013-10-8,88.2,63.1,46.9,55.8,45.9,40.3,92,59,23,29.80,29.61,7,2,0,0.00
2013-10-9,81.0,59.2,43.9,52.7,44.5,39.9,93,63,30,29.64,29.53,6,2,0,0.00
2013-10-10,84.6,60.7,46.4,55.0,46.6,39.9,87,64,34,29.90,29.64,6,2,0,0.00
2013-10-11,78.6,59.1,46.6,56.5,49.3,42.9,90,73,41,29.99,29.87,6,2,0,0.00
2013-10-12,81.0,58.8,43.3,57.4,48.0,41.4,95,72,32,29.92,29.80,8,2,0,0.00
2013-10-13,87.3,62.6,45.7,58.0,45.7,40.1,95,61,21,29.95,29.83,6,2,0,0.00
2013-10-14,90.1,64.5,45.3,49.9,39.8,33.0,84,48,14,30.02,29.87,5,2,0,0.00
2013-10-15,91.6,66.2,46.6,47.1,36.1,29.6,71,40,12,29.94,29.82,5,1,0,0.00
2013-10-16,92.3,66.9,46.6,48.4,36.2,26.4,63,38,11,29.98,29.87,7,1,0,0.00
2013-10-17,93.6,66.4,46.8,50.0,37.0,26.4,66,39,11,29.97,29.84,6,1,0,0.00
2013-10-18,88.7,63.0,45.3,59.1,46.9,33.1,88,60,27,29.95,29.85,6,1,0,0.00
2013-10-19,91.8,63.7,45.7,59.4,49.1,41.6,94,65,21,29.97,29.86,5,1,0,0.00
2013-10-20,83.3,58.6,43.7,59.5,49.0,41.7,95,75,39,29.91,29.79,4,1,0,0.00
2013-10-21,80.1,57.6,43.7,57.3,49.5,41.8,95,78,44,29.91,29.80,6,1,0,0.00
2013-10-22,81.7,57.7,43.2,59.5,49.9,41.3,95,79,46,29.92,29.80,5,1,0,0.00
2013-10-23,75.7,55.7,44.4,58.8,50.0,42.2,96,83,55,29.88,29.79,6,1,0,0.00
2013-10-24,72.0,55.9,46.2,54.4,49.3,43.8,93,80,53,30.04,29.88,5,1,0,0.00
2013-10-25,80.2,57.8,43.5,57.1,49.0,41.9,97,76,42,30.08,29.97,5,1,0,0.00
2013-10-26,87.4,61.3,44.2,59.8,49.6,42.2,96,71,31,30.06,29.90,5,1,0,0.00
2013-10-27,72.5,54.5,42.6,54.9,47.6,40.3,95,79,52,29.94,29.59,26,5,0,0.00
2013-10-28,68.4,59.2,52.7,49.8,48.5,46.8,87,69,49,29.75,29.63,9,4,0,0.00
2013-10-29,68.5,54.6,44.1,52.0,47.3,41.1,93,78,50,29.96,29.75,9,1,0,0.00
2013-10-30,78.3,55.6,40.8,54.1,45.1,39.2,96,72,33,30.06,29.96,5,1,0,0.00
2013-10-31,84.9,58.0,41.9,52.1,43.9,38.8,90,65,24,30.09,29.95,4,1,0,0.00
2013-11-1,84.9,60.7,43.5,51.4,44.3,40.2,89,61,22,30.04,29.89,4,1,0,0.00
2013-11-2,79.5,58.0,45.3,56.5,47.2,40.8,87,69,41,29.92,29.81,8,1,0,0.00
2013-11-3,73.9,54.8,40.6,50.7,38.8,26.8,94,63,19,29.95,29.81,6,1,0,0.00
2013-11-4,78.3,55.8,38.3,46.8,35.4,28.3,87,53,18,29.96,29.81,7,1,0,0.00
2013-11-5,84.0,60.8,44.2,45.2,35.5,32.1,67,44,17,30.11,29.96,6,1,0,0.00
2013-11-6,84.4,60.7,44.6,51.7,39.4,34.9,73,50,18,30.16,30.05,4,1,0,0.00
2013-11-7,83.7,60.8,48.2,51.0,43.5,38.6,82,56,25,30.07,29.96,5,1,0,0.00
2013-11-8,83.1,64.4,46.2,58.6,49.6,41.8,95,62,32,29.99,29.84,4,0,0,0.00
2013-11-9,79.7,57.1,42.6,56.5,46.9,40.4,95,73,38,29.94,29.85,5,1,0,0.00
2013-11-10,73.4,53.7,43.2,55.6,47.6,41.6,96,82,52,30.03,29.92,5,1,0,0.00
2013-11-11,73.6,58.9,49.1,56.4,51.4,47.4,94,78,54,30.06,29.97,5,1,0,0.00
2013-11-12,83.8,62.1,49.6,57.1,49.9,43.9,85,68,33,30.16,30.04,5,1,0,0.00
2013-11-13,87.6,60.8,47.3,58.7,50.9,45.0,96,74,31,30.15,29.99,5,1,0,0.00
2013-11-14,74.8,55.8,46.2,58.0,49.1,42.3,95,80,56,30.01,29.77,5,1,0,0.00
2013-11-15,78.4,56.0,42.4,50.2,41.6,36.3,91,63,24,29.78,29.61,6,2,0,0.00
2013-11-16,74.7,52.9,40.1,51.5,44.7,37.7,94,77,39,29.83,29.67,10,2,0,0.00
2013-11-17,73.8,53.2,42.4,54.3,45.5,41.0,97,78,45,29.99,29.83,8,1,0,0.00
2013-11-18,69.8,51.7,41.7,52.1,45.1,39.8,94,80,49,30.05,29.98,6,1,0,0.00
2013-11-19,69.1,55.7,46.9,56.5,51.5,44.1,96,86,59,30.00,29.84,4,1,0,0.00
2013-11-20,65.7,55.8,47.1,63.7,54.1,46.0,98,94,82,29.83,29.73,4,1,0,0.00
2013-11-21,71.4,54.6,43.0,52.8,44.4,34.2,97,73,29,29.89,29.79,6,1,0,0.00
2013-11-22,77.9,56.4,39.7,38.1,28.3,17.9,76,41,13,29.94,29.80,7,2,0,0.00
2013-11-23,75.9,53.8,39.7,44.8,37.3,32.3,90,59,22,30.01,29.85,5,1,0,0.00
2013-11-24,73.0,52.0,39.4,50.2,42.5,37.3,94,74,39,30.15,30.00,4,1,0,0.00
2013-11-25,75.0,52.1,38.7,49.5,42.3,36.6,94,73,37,30.24,30.14,4,1,0,0.00
2013-11-26,72.0,53.2,42.3,52.5,44.1,40.1,94,74,42,30.16,29.92,5,0,0,0.00
2013-11-27,75.2,55.1,41.4,52.3,45.5,39.5,94,73,42,29.92,29.73,5,1,0,0.00
2013-11-28,78.4,56.0,44.8,51.0,45.0,40.5,91,70,34,29.98,29.76,5,1,0,0.00
2013-11-29,77.9,55.0,41.2,53.6,44.3,37.9,90,70,37,30.12,29.97,4,1,0,0.00
2013-11-30,76.1,54.3,41.9,55.8,45.5,39.0,93,75,39,30.18,30.09,5,1,0,0.00
2013-12-1,79.0,55.5,40.6,56.8,45.7,38.7,94,73,38,30.26,30.12,4,1,0,0.00
2013-12-2,75.4,53.4,41.2,55.5,46.9,38.8,95,80,46,30.13,29.88,5,1,0,0.00
2013-12-3,59.2,50.1,36.1,53.9,41.1,30.8,96,73,47,29.88,29.75,8,2,0,0.00
2013-12-4,60.8,42.2,29.8,35.5,27.3,23.8,81,60,26,29.99,29.84,5,1,0,0.00
2013-12-5,60.6,39.8,26.1,28.2,21.8,16.7,83,55,20,30.09,29.98,6,1,0,0.00
2013-12-6,60.8,44.8,30.6,47.9,36.8,27.6,92,76,44,30.10,29.82,15,3,0,0.00
2013-12-7,56.3,43.4,35.1,47.4,38.6,33.0,94,85,43,30.04,29.82,7,2,0,0.00
2013-12-10,56.5,43.7,33.6,33.4,29.4,26.5,75,59,37,30.17,30.10,4,1,0,0.00
2013-12-11,60.3,42.0,30.2,34.7,29.7,26.2,87,65,32,30.16,30.07,6,1,0,0.00
2013-12-12,63.5,43.7,30.9,39.5,32.6,27.1,86,68,36,30.18,30.06,5,1,0,0.00
2013-12-13,62.1,45.0,34.9,45.9,36.9,31.7,91,75,44,30.25,30.13,5,1,0,0.00
2013-12-14,64.9,46.1,34.5,45.1,36.0,31.3,91,70,38,30.32,30.21,5,1,0,0.00
2013-12-15,65.1,46.8,34.2,44.0,36.4,31.0,89,70,39,30.27,30.14,7,1,0,0.00
2013-12-16,71.1,50.7,37.2,43.8,36.7,31.9,82,62,28,30.14,30.02,4,1,0,0.00
2013-12-17,68.7,51.2,40.1,45.3,39.2,34.9,83,65,38,30.08,29.92,4,1,0,0.00
2013-12-18,62.2,49.6,40.1,50.0,42.5,35.4,93,77,58,29.92,29.68,6,2,0,0.00
2013-12-19,62.6,49.2,37.2,45.0,37.7,25.8,93,66,40,29.84,29.62,11,2,0,0.00
2013-12-20,65.1,47.1,33.8,28.2,20.8,0.9,63,42,8,29.92,29.82,5,1,0,0.00
2013-12-21,66.2,49.2,38.5,51.1,42.0,28.3,96,78,55,29.98,29.86,4,1,0,0.00
2013-12-22,71.2,51.1,39.6,50.3,40.3,37.8,96,71,33,30.18,29.98,4,1,0,0.00
2013-12-23,66.7,49.5,39.2,48.8,40.4,35.9,90,73,45,30.30,30.18,5,1,0,0.00
2013-12-24,74.3,51.8,39.6,49.7,40.7,35.4,88,69,35,30.24,30.09,5,1,0,0.00
2013-12-25,70.0,50.5,38.7,45.7,39.1,34.1,85,67,39,30.20,30.09,5,1,0,0.00
2013-12-26,70.7,50.2,36.5,44.7,39.3,33.5,91,69,37,30.17,30.05,5,1,0,0.00
2013-12-27,65.1,48.0,37.4,47.9,40.2,34.7,90,76,49,30.14,30.01,5,1,0,0.00
2013-12-28,69.1,48.9,36.3,46.4,35.6,30.8,93,65,25,30.05,29.92,5,1,0,0.00
2013-12-29,70.9,51.4,39.9,33.6,26.9,15.2,68,44,13,30.08,29.97,5,1,0,0.00
2013-12-30,67.3,48.3,36.7,40.4,34.8,28.4,79,62,30,30.17,30.07,5,1,0,0.00
2013-12-31,64.9,46.2,36.7,48.8,39.1,32.6,92,77,48,30.18,30.05,5,1,0,0.00
2014-1-1,63.0,47.4,35.2,48.3,39.1,32.3,91,74,55,30.13,30.03,5,1,0,0.00
2014-1-2,68.7,50.7,38.5,44.4,38.1,33.0,87,64,38,30.07,29.94,6,1,0,0.00